createdAt,value
2018-10-04T00:02:17.912Z,1.67
2018-10-04T00:07:21.011Z,1.20
2018-10-04T00:12:24.118Z,1.20
2018-10-04T00:17:27.213Z,0.87
2018-10-04T00:22:30.314Z,1.23
2018-10-04T00:27:33.437Z,1.30
2018-10-04T00:32:36.552Z,1.37
2018-10-04T00:37:39.653Z,1.37
2018-10-04T00:42:42.751Z,1.63
2018-10-04T00:47:45.850Z,1.20
2018-10-04T00:52:48.933Z,1.40
2018-10-04T00:57:52.013Z,1.07
2018-10-04T01:02:55.113Z,1.53
2018-10-04T01:07:58.211Z,1.27
2018-10-04T01:13:01.311Z,1.30
2018-10-04T01:18:15.880Z,0.97
2018-10-04T01:23:19.000Z,1.17
2018-10-04T01:28:22.104Z,1.40
2018-10-04T01:33:25.208Z,1.20
2018-10-04T01:38:28.320Z,1.30
2018-10-04T01:43:31.459Z,1.10
2018-10-04T01:48:34.576Z,1.20
2018-10-04T01:53:37.666Z,1.17
2018-10-04T01:58:40.724Z,1.40
2018-10-04T02:03:43.802Z,1.30
2018-10-04T02:08:47.057Z,1.50
2018-10-04T02:13:50.165Z,1.30
2018-10-04T02:18:53.273Z,1.40
2018-10-04T02:23:56.377Z,1.20
2018-10-04T02:28:59.471Z,1.30
2018-10-04T02:34:02.657Z,1.43
2018-10-04T02:39:05.958Z,1.03
2018-10-04T02:44:09.063Z,2.10
2018-10-04T02:49:12.140Z,1.13
2018-10-04T02:54:20.690Z,1.10
2018-10-04T02:59:25.029Z,1.43
2018-10-04T03:04:28.133Z,1.00
2018-10-04T03:09:31.222Z,1.20
2018-10-04T03:14:34.333Z,1.47
2018-10-04T03:19:37.417Z,2.20
2018-10-04T03:24:40.582Z,1.60
2018-10-04T03:29:43.661Z,1.40
2018-10-04T03:34:46.774Z,1.70
2018-10-04T03:39:50.201Z,1.80
2018-10-04T03:44:53.281Z,1.30
2018-10-04T03:49:56.357Z,1.30
2018-10-04T03:54:59.464Z,1.77
2018-10-04T04:00:02.550Z,2.43
2018-10-04T04:05:05.633Z,2.20
2018-10-04T04:10:08.715Z,2.77
2018-10-04T04:15:11.822Z,2.47
2018-10-04T04:20:14.954Z,3.63
2018-10-04T04:25:18.072Z,2.23
2018-10-04T04:30:21.118Z,4.83
2018-10-04T04:35:24.191Z,1.60
2018-10-04T04:40:27.278Z,1.47
2018-10-04T04:45:30.352Z,2.93
2018-10-04T04:50:33.405Z,3.60
2018-10-04T04:55:37.213Z,2.90
2018-10-04T05:00:41.557Z,2.40
2018-10-04T05:05:44.618Z,1.70
2018-10-04T05:10:47.668Z,1.80
2018-10-04T05:15:50.791Z,1.80
2018-10-04T05:20:53.841Z,2.03
2018-10-04T05:25:56.910Z,1.67
2018-10-04T05:30:59.998Z,2.30
2018-10-04T05:36:03.081Z,2.00
2018-10-04T05:41:06.173Z,1.87
2018-10-04T05:46:09.243Z,2.07
2018-10-04T05:51:12.417Z,1.70
2018-10-04T05:56:15.745Z,2.60
2018-10-04T06:01:19.381Z,2.57
2018-10-04T06:06:22.815Z,2.50
2018-10-04T06:11:26.122Z,2.73
2018-10-04T06:16:29.207Z,1.90
2018-10-04T06:21:32.316Z,2.20
2018-10-04T06:26:35.826Z,2.13
2018-10-04T06:31:38.932Z,2.00
2018-10-04T06:36:42.001Z,2.47
2018-10-04T06:41:45.106Z,2.00
2018-10-04T06:46:48.321Z,2.10
2018-10-04T06:51:51.428Z,2.33
2018-10-04T06:56:54.525Z,2.10
2018-10-04T07:01:57.621Z,2.87
2018-10-04T07:07:00.723Z,1.80
2018-10-04T07:12:03.810Z,2.57
2018-10-04T07:17:06.885Z,1.80
2018-10-04T07:22:09.988Z,2.13
2018-10-04T07:27:13.080Z,1.90
2018-10-04T07:32:16.169Z,1.83
2018-10-04T07:37:19.308Z,2.10
2018-10-04T07:42:22.458Z,2.10
2018-10-04T07:47:25.428Z,2.20
2018-10-04T07:52:28.690Z,2.10
2018-10-04T07:57:31.784Z,2.00
2018-10-04T08:02:34.869Z,2.13
2018-10-04T08:07:37.962Z,2.20
2018-10-04T08:12:41.050Z,2.43
2018-10-04T08:17:44.111Z,2.60
2018-10-04T08:22:47.239Z,2.77
2018-10-04T08:27:50.307Z,2.10
2018-10-04T08:32:53.415Z,2.37
2018-10-04T08:37:56.510Z,2.60
2018-10-04T08:42:59.613Z,2.60
2018-10-04T08:48:02.807Z,2.90
2018-10-04T08:53:06.171Z,2.10
2018-10-04T08:58:09.281Z,2.60
2018-10-04T09:03:12.397Z,2.63
2018-10-04T09:08:15.937Z,2.53
2018-10-04T09:13:19.029Z,2.70
2018-10-04T09:18:22.135Z,2.00
2018-10-04T09:23:29.217Z,2.53
2018-10-04T09:28:32.312Z,2.70
2018-10-04T09:33:35.418Z,2.23
2018-10-04T09:38:38.502Z,2.57
2018-10-04T09:43:41.588Z,3.00
2018-10-04T09:48:47.622Z,3.03
2018-10-04T09:53:52.605Z,2.70
2018-10-04T09:58:57.548Z,3.00
2018-10-04T10:04:01.269Z,3.67
2018-10-04T10:09:06.730Z,3.83
2018-10-04T10:14:09.849Z,4.00
2018-10-04T10:19:12.973Z,3.23
2018-10-04T10:24:16.060Z,3.20
2018-10-04T10:29:19.147Z,3.37
2018-10-04T10:34:22.211Z,3.37
2018-10-04T10:39:25.368Z,3.87
2018-10-04T10:44:28.447Z,3.23
2018-10-04T10:49:31.534Z,3.20
2018-10-04T10:54:35.020Z,2.90
2018-10-04T10:59:38.107Z,3.47
2018-10-04T11:04:41.172Z,2.90
2018-10-04T11:09:44.242Z,3.97
2018-10-04T11:14:47.310Z,3.40
2018-10-04T11:19:50.410Z,4.10
2018-10-04T11:32:22.149Z,3.60
2018-10-04T11:37:25.229Z,3.50
2018-10-04T11:42:28.500Z,4.47
2018-10-04T11:47:37.285Z,4.30
2018-10-04T11:52:40.365Z,3.40
2018-10-04T11:57:43.504Z,3.30
2018-10-04T12:02:48.641Z,3.70
2018-10-04T12:07:51.738Z,3.93
2018-10-04T12:12:54.890Z,3.57
2018-10-04T12:17:57.941Z,3.83
2018-10-04T12:23:01.023Z,3.80
2018-10-04T12:28:04.388Z,3.70
2018-10-04T12:33:07.488Z,3.60
2018-10-04T12:38:10.545Z,3.33
2018-10-04T12:43:13.609Z,3.50
2018-10-04T12:48:16.692Z,3.83
2018-10-04T12:53:19.774Z,4.00
2018-10-04T12:58:22.841Z,3.90
2018-10-04T13:03:25.909Z,4.90
2018-10-04T13:08:29.034Z,4.50
2018-10-04T13:13:32.162Z,4.37
2018-10-04T13:18:35.178Z,4.53
2018-10-04T13:23:38.232Z,4.00
2018-10-04T13:28:41.325Z,6.57
2018-10-04T13:33:44.405Z,3.97
2018-10-04T13:38:47.525Z,4.23
2018-10-04T13:43:50.626Z,3.87
2018-10-04T13:48:53.739Z,3.63
2018-10-04T13:53:56.837Z,3.87
2018-10-04T13:58:59.992Z,4.63
2018-10-04T14:04:03.126Z,4.47
2018-10-04T14:09:06.560Z,4.40
2018-10-04T14:14:09.641Z,4.40
2018-10-04T14:24:16.697Z,4.77
2018-10-04T14:29:19.909Z,4.30
2018-10-04T14:34:23.001Z,4.60
2018-10-04T14:39:26.174Z,4.37
2018-10-04T14:44:29.894Z,4.40
2018-10-04T14:49:32.978Z,4.70
2018-10-04T14:54:36.084Z,5.03
2018-10-04T14:59:39.173Z,5.37
2018-10-04T15:04:42.276Z,4.73
2018-10-04T15:09:45.387Z,4.47
2018-10-04T15:14:48.474Z,4.33
2018-10-04T15:19:51.581Z,4.63
2018-10-04T15:24:54.674Z,5.03
2018-10-04T15:29:57.808Z,4.70
2018-10-04T15:35:00.885Z,5.90
2018-10-04T15:40:03.978Z,7.30
2018-10-04T15:45:07.107Z,10.43
2018-10-04T15:50:10.310Z,15.67
2018-10-04T15:55:13.405Z,10.10
2018-10-04T16:00:16.578Z,6.43
2018-10-04T16:05:19.897Z,6.83
2018-10-04T16:10:23.307Z,5.90
2018-10-04T16:15:31.659Z,12.47
2018-10-04T16:20:35.057Z,11.00
2018-10-04T16:25:38.148Z,9.87
2018-10-04T16:30:41.262Z,11.20
2018-10-04T16:35:44.359Z,11.10
2018-10-04T16:40:47.455Z,7.67
2018-10-04T16:45:50.629Z,7.13
2018-10-04T16:50:53.794Z,7.70
2018-10-04T16:55:57.046Z,7.70
2018-10-04T17:01:00.194Z,7.20
2018-10-04T17:06:03.618Z,7.73
2018-10-04T17:11:06.750Z,11.47
2018-10-04T17:16:09.862Z,8.57
2018-10-04T17:21:12.997Z,7.03
2018-10-04T17:26:16.145Z,6.63
2018-10-04T17:31:19.254Z,7.43
2018-10-04T17:36:22.424Z,6.83
2018-10-04T17:41:25.566Z,5.53
2018-10-04T17:46:28.672Z,5.93
2018-10-04T17:51:32.205Z,5.70
2018-10-04T17:56:35.274Z,5.87
2018-10-04T18:01:38.367Z,6.97
2018-10-04T18:06:41.457Z,6.00
2018-10-04T18:11:44.551Z,6.73
2018-10-04T18:16:47.632Z,5.97
2018-10-04T18:21:51.098Z,6.33
2018-10-04T18:26:54.547Z,5.40
2018-10-04T18:31:57.620Z,5.30
2018-10-04T18:37:00.689Z,5.83
2018-10-04T18:42:03.764Z,5.77
2018-10-04T18:47:06.838Z,5.63
2018-10-04T18:52:10.000Z,5.43
2018-10-04T18:57:13.137Z,5.70
2018-10-04T19:02:16.506Z,5.37
2018-10-04T19:07:19.795Z,5.73
2018-10-04T19:12:22.864Z,5.83
2018-10-04T19:17:26.176Z,6.90
2018-10-04T19:22:29.730Z,5.87
2018-10-04T19:27:32.891Z,5.93
2018-10-04T19:32:35.968Z,5.93
2018-10-04T19:37:39.050Z,8.83
2018-10-04T19:42:42.108Z,8.87
2018-10-04T19:47:45.174Z,9.43
2018-10-04T19:52:48.242Z,9.37
2018-10-04T19:57:51.337Z,8.30
2018-10-04T20:02:54.440Z,8.23
2018-10-04T20:08:04.082Z,7.77
2018-10-04T20:13:07.199Z,7.37
2018-10-04T20:18:10.289Z,7.60
2018-10-04T20:23:13.573Z,7.90
2018-10-04T20:28:16.831Z,7.30
2018-10-04T20:33:19.917Z,8.47
2018-10-04T20:38:23.015Z,8.47
2018-10-04T20:43:26.199Z,7.70
2018-10-04T20:48:29.389Z,7.17
2018-10-04T20:53:32.514Z,6.73
2018-10-04T20:58:35.594Z,7.43
2018-10-04T21:03:38.687Z,7.43
2018-10-04T21:08:42.069Z,7.07
2018-10-04T21:13:45.164Z,7.30
2018-10-04T21:18:48.274Z,7.53
2018-10-04T21:23:51.356Z,7.53
2018-10-04T21:28:54.437Z,8.20
2018-10-04T21:33:57.810Z,7.30
2018-10-04T21:39:00.898Z,7.10
2018-10-04T21:44:03.969Z,8.00
2018-10-04T21:49:07.035Z,8.30
2018-10-04T21:54:10.109Z,7.80
2018-10-04T21:59:13.243Z,8.33
2018-10-04T22:04:16.314Z,8.07
2018-10-04T22:09:19.352Z,7.90
2018-10-04T22:14:22.516Z,8.70
2018-10-04T22:19:25.766Z,8.57
2018-10-04T22:24:28.828Z,8.73
2018-10-04T22:29:31.930Z,8.80
2018-10-04T22:34:35.027Z,7.87
2018-10-04T22:39:38.096Z,8.90
2018-10-04T22:44:41.184Z,8.67
2018-10-04T22:49:44.286Z,9.03
2018-10-04T22:54:47.382Z,9.47
2018-10-04T22:59:50.479Z,8.77
2018-10-04T23:04:53.577Z,8.93
2018-10-04T23:09:56.667Z,9.03
2018-10-04T23:14:59.746Z,9.30
2018-10-04T23:20:02.830Z,10.00
2018-10-04T23:25:05.955Z,9.70
2018-10-04T23:30:09.878Z,9.47
2018-10-04T23:35:12.965Z,9.17
2018-10-04T23:40:16.045Z,9.27
2018-10-04T23:45:19.145Z,9.40
2018-10-04T23:50:22.251Z,9.03
2018-10-04T23:55:25.321Z,9.07
